sensor_id;sensor_type;location;lat;lon;timestamp;P1;durP1;ratioP1;P2;durP2;ratioP2
21843;SDS011;11084;52.482;9.108;2022-10-16T00:01:15;2.93;;;0.93;;
21843;SDS011;11084;52.482;9.108;2022-10-16T00:03:44;0.80;;;0.80;;
21843;SDS011;11084;52.482;9.108;2022-10-16T00:06:12;1.70;;;1.00;;
21843;SDS011;11084;52.482;9.108;2022-10-16T00:08:40;0.90;;;0.90;;
21843;SDS011;11084;52.482;9.108;2022-10-16T00:11:08;4.53;;;1.13;;
21843;SDS011;11084;52.482;9.108;2022-10-16T00:13:49;1.47;;;1.00;;
21843;SDS011;11084;52.482;9.108;2022-10-16T00:16:17;1.40;;;1.10;;
21843;SDS011;11084;52.482;9.108;2022-10-16T00:18:44;1.67;;;1.23;;
21843;SDS011;11084;52.482;9.108;2022-10-16T00:21:12;3.30;;;1.00;;
21843;SDS011;11084;52.482;9.108;2022-10-16T00:23:44;2.40;;;1.10;;
21843;SDS011;11084;52.482;9.108;2022-10-16T00:26:12;1.73;;;1.03;;
21843;SDS011;11084;52.482;9.108;2022-10-16T00:28:41;3.87;;;0.90;;
21843;SDS011;11084;52.482;9.108;2022-10-16T00:31:08;3.83;;;1.33;;
21843;SDS011;11084;52.482;9.108;2022-10-16T00:33:36;1.13;;;0.90;;
21843;SDS011;11084;52.482;9.108;2022-10-16T00:36:06;1.57;;;0.87;;
21843;SDS011;11084;52.482;9.108;2022-10-16T00:38:36;2.73;;;1.20;;
21843;SDS011;11084;52.482;9.108;2022-10-16T00:41:03;1.93;;;1.10;;
21843;SDS011;11084;52.482;9.108;2022-10-16T00:46:14;11.63;;;1.70;;
21843;SDS011;11084;52.482;9.108;2022-10-16T00:49:00;5.40;;;1.60;;
21843;SDS011;11084;52.482;9.108;2022-10-16T00:51:37;6.23;;;1.80;;
21843;SDS011;11084;52.482;9.108;2022-10-16T00:54:17;6.40;;;1.70;;
21843;SDS011;11084;52.482;9.108;2022-10-16T00:56:53;2.50;;;1.40;;
21843;SDS011;11084;52.482;9.108;2022-10-16T00:59:39;9.80;;;1.80;;
21843;SDS011;11084;52.482;9.108;2022-10-16T01:02:07;4.73;;;1.60;;
21843;SDS011;11084;52.482;9.108;2022-10-16T01:04:43;1.93;;;1.37;;
21843;SDS011;11084;52.482;9.108;2022-10-16T01:07:16;2.20;;;1.40;;
21843;SDS011;11084;52.482;9.108;2022-10-16T01:10:23;4.57;;;2.07;;
21843;SDS011;11084;52.482;9.108;2022-10-16T01:12:59;6.87;;;2.57;;
21843;SDS011;11084;52.482;9.108;2022-10-16T01:18:42;4.33;;;1.87;;
21843;SDS011;11084;52.482;9.108;2022-10-16T01:21:26;6.10;;;1.83;;
21843;SDS011;11084;52.482;9.108;2022-10-16T01:32:35;4.07;;;2.00;;
21843;SDS011;11084;52.482;9.108;2022-10-16T01:40:17;5.27;;;2.43;;
21843;SDS011;11084;52.482;9.108;2022-10-16T01:42:50;2.70;;;1.60;;
21843;SDS011;11084;52.482;9.108;2022-10-16T01:45:22;3.87;;;2.40;;
21843;SDS011;11084;52.482;9.108;2022-10-16T01:47:49;3.43;;;2.30;;
21843;SDS011;11084;52.482;9.108;2022-10-16T01:50:18;2.00;;;1.80;;
21843;SDS011;11084;52.482;9.108;2022-10-16T01:52:47;4.10;;;2.30;;
21843;SDS011;11084;52.482;9.108;2022-10-16T01:55:18;4.53;;;1.80;;
21843;SDS011;11084;52.482;9.108;2022-10-16T01:57:52;6.40;;;1.93;;
21843;SDS011;11084;52.482;9.108;2022-10-16T02:00:20;4.80;;;1.93;;
21843;SDS011;11084;52.482;9.108;2022-10-16T02:02:51;7.50;;;2.00;;
21843;SDS011;11084;52.482;9.108;2022-10-16T02:05:25;5.43;;;2.30;;
21843;SDS011;11084;52.482;9.108;2022-10-16T02:08:17;10.90;;;2.27;;
21843;SDS011;11084;52.482;9.108;2022-10-16T02:10:44;3.73;;;1.83;;
21843;SDS011;11084;52.482;9.108;2022-10-16T02:13:12;4.30;;;2.13;;
21843;SDS011;11084;52.482;9.108;2022-10-16T02:15:47;3.13;;;2.00;;
21843;SDS011;11084;52.482;9.108;2022-10-16T02:18:13;6.37;;;2.03;;
21843;SDS011;11084;52.482;9.108;2022-10-16T02:20:45;6.57;;;1.83;;
21843;SDS011;11084;52.482;9.108;2022-10-16T02:23:29;8.20;;;2.20;;
21843;SDS011;11084;52.482;9.108;2022-10-16T02:29:08;3.90;;;1.90;;
21843;SDS011;11084;52.482;9.108;2022-10-16T02:31:38;4.83;;;1.90;;
21843;SDS011;11084;52.482;9.108;2022-10-16T02:34:10;5.50;;;2.40;;
21843;SDS011;11084;52.482;9.108;2022-10-16T02:36:39;3.43;;;2.10;;
21843;SDS011;11084;52.482;9.108;2022-10-16T02:39:06;6.57;;;2.57;;
21843;SDS011;11084;52.482;9.108;2022-10-16T02:41:33;2.93;;;1.97;;
21843;SDS011;11084;52.482;9.108;2022-10-16T02:43:59;3.43;;;2.37;;
21843;SDS011;11084;52.482;9.108;2022-10-16T02:46:25;6.03;;;2.60;;
21843;SDS011;11084;52.482;9.108;2022-10-16T02:48:51;7.40;;;2.37;;
21843;SDS011;11084;52.482;9.108;2022-10-16T02:51:17;3.70;;;1.90;;
21843;SDS011;11084;52.482;9.108;2022-10-16T02:53:43;11.43;;;2.50;;
21843;SDS011;11084;52.482;9.108;2022-10-16T02:56:09;4.17;;;2.20;;
21843;SDS011;11084;52.482;9.108;2022-10-16T02:58:36;5.43;;;2.47;;
21843;SDS011;11084;52.482;9.108;2022-10-16T03:01:02;2.07;;;1.70;;
21843;SDS011;11084;52.482;9.108;2022-10-16T03:03:28;7.67;;;2.30;;
21843;SDS011;11084;52.482;9.108;2022-10-16T03:05:54;4.77;;;2.10;;
21843;SDS011;11084;52.482;9.108;2022-10-16T03:08:20;5.63;;;2.17;;
21843;SDS011;11084;52.482;9.108;2022-10-16T03:10:49;4.40;;;2.10;;
21843;SDS011;11084;52.482;9.108;2022-10-16T03:13:15;9.27;;;2.50;;
21843;SDS011;11084;52.482;9.108;2022-10-16T03:15:42;10.47;;;2.30;;
21843;SDS011;11084;52.482;9.108;2022-10-16T03:18:09;6.57;;;2.30;;
21843;SDS011;11084;52.482;9.108;2022-10-16T03:20:34;13.50;;;2.17;;
21843;SDS011;11084;52.482;9.108;2022-10-16T03:23:01;5.40;;;2.60;;
21843;SDS011;11084;52.482;9.108;2022-10-16T03:25:28;3.10;;;1.90;;
21843;SDS011;11084;52.482;9.108;2022-10-16T03:27:54;6.67;;;2.60;;
21843;SDS011;11084;52.482;9.108;2022-10-16T03:30:20;5.40;;;2.07;;
21843;SDS011;11084;52.482;9.108;2022-10-16T03:32:46;5.23;;;2.10;;
21843;SDS011;11084;52.482;9.108;2022-10-16T03:35:12;11.60;;;2.17;;
21843;SDS011;11084;52.482;9.108;2022-10-16T03:37:38;8.30;;;2.27;;
21843;SDS011;11084;52.482;9.108;2022-10-16T03:40:04;8.03;;;2.33;;
21843;SDS011;11084;52.482;9.108;2022-10-16T03:42:31;5.83;;;2.60;;
21843;SDS011;11084;52.482;9.108;2022-10-16T03:44:57;6.83;;;2.17;;
21843;SDS011;11084;52.482;9.108;2022-10-16T03:47:23;7.73;;;2.20;;
21843;SDS011;11084;52.482;9.108;2022-10-16T03:49:49;6.03;;;2.33;;
21843;SDS011;11084;52.482;9.108;2022-10-16T03:52:15;4.77;;;2.40;;
21843;SDS011;11084;52.482;9.108;2022-10-16T03:54:42;14.40;;;1.90;;
21843;SDS011;11084;52.482;9.108;2022-10-16T03:57:08;5.03;;;2.33;;
21843;SDS011;11084;52.482;9.108;2022-10-16T03:59:34;3.17;;;2.00;;
21843;SDS011;11084;52.482;9.108;2022-10-16T04:02:00;4.33;;;2.50;;
21843;SDS011;11084;52.482;9.108;2022-10-16T04:04:26;6.30;;;2.10;;
21843;SDS011;11084;52.482;9.108;2022-10-16T04:06:52;2.33;;;2.03;;
21843;SDS011;11084;52.482;9.108;2022-10-16T04:09:18;7.87;;;2.20;;
21843;SDS011;11084;52.482;9.108;2022-10-16T04:11:44;10.40;;;2.40;;
21843;SDS011;11084;52.482;9.108;2022-10-16T04:14:09;5.10;;;2.00;;
21843;SDS011;11084;52.482;9.108;2022-10-16T04:16:35;2.57;;;1.93;;
21843;SDS011;11084;52.482;9.108;2022-10-16T04:19:01;2.77;;;1.53;;
21843;SDS011;11084;52.482;9.108;2022-10-16T04:21:28;8.07;;;1.87;;
21843;SDS011;11084;52.482;9.108;2022-10-16T04:23:54;4.57;;;2.23;;
21843;SDS011;11084;52.482;9.108;2022-10-16T04:26:20;9.47;;;2.53;;
21843;SDS011;11084;52.482;9.108;2022-10-16T04:28:46;4.37;;;1.87;;
21843;SDS011;11084;52.482;9.108;2022-10-16T04:31:12;9.03;;;2.60;;
21843;SDS011;11084;52.482;9.108;2022-10-16T04:33:38;4.60;;;2.47;;
21843;SDS011;11084;52.482;9.108;2022-10-16T04:36:04;6.97;;;2.20;;
21843;SDS011;11084;52.482;9.108;2022-10-16T04:38:30;3.80;;;1.90;;
21843;SDS011;11084;52.482;9.108;2022-10-16T04:40:56;4.37;;;1.90;;
21843;SDS011;11084;52.482;9.108;2022-10-16T04:43:23;5.30;;;2.33;;
21843;SDS011;11084;52.482;9.108;2022-10-16T04:45:49;4.63;;;1.70;;
21843;SDS011;11084;52.482;9.108;2022-10-16T04:48:16;7.40;;;1.70;;
21843;SDS011;11084;52.482;9.108;2022-10-16T04:50:43;6.83;;;2.30;;
21843;SDS011;11084;52.482;9.108;2022-10-16T04:53:09;7.87;;;2.00;;
21843;SDS011;11084;52.482;9.108;2022-10-16T04:55:35;2.67;;;2.10;;
21843;SDS011;11084;52.482;9.108;2022-10-16T04:58:01;8.07;;;1.70;;
21843;SDS011;11084;52.482;9.108;2022-10-16T05:00:27;4.53;;;1.80;;
21843;SDS011;11084;52.482;9.108;2022-10-16T05:02:53;3.13;;;1.80;;
21843;SDS011;11084;52.482;9.108;2022-10-16T05:05:19;5.50;;;1.67;;
21843;SDS011;11084;52.482;9.108;2022-10-16T05:07:45;2.90;;;2.00;;
21843;SDS011;11084;52.482;9.108;2022-10-16T05:10:12;3.97;;;2.20;;
21843;SDS011;11084;52.482;9.108;2022-10-16T05:12:38;4.80;;;2.00;;
21843;SDS011;11084;52.482;9.108;2022-10-16T05:15:04;2.30;;;1.73;;
21843;SDS011;11084;52.482;9.108;2022-10-16T05:17:31;3.67;;;1.73;;
21843;SDS011;11084;52.482;9.108;2022-10-16T05:19:57;6.00;;;1.70;;
21843;SDS011;11084;52.482;9.108;2022-10-16T05:22:23;6.47;;;1.80;;
21843;SDS011;11084;52.482;9.108;2022-10-16T05:24:49;2.27;;;1.63;;
21843;SDS011;11084;52.482;9.108;2022-10-16T05:27:15;3.00;;;1.50;;
21843;SDS011;11084;52.482;9.108;2022-10-16T05:29:45;3.13;;;1.67;;
21843;SDS011;11084;52.482;9.108;2022-10-16T05:32:12;2.70;;;1.90;;
21843;SDS011;11084;52.482;9.108;2022-10-16T05:34:39;2.50;;;1.50;;
21843;SDS011;11084;52.482;9.108;2022-10-16T05:37:05;6.40;;;2.07;;
21843;SDS011;11084;52.482;9.108;2022-10-16T05:39:33;10.13;;;1.87;;
21843;SDS011;11084;52.482;9.108;2022-10-16T05:41:59;3.53;;;1.40;;
21843;SDS011;11084;52.482;9.108;2022-10-16T05:44:25;6.70;;;1.90;;
21843;SDS011;11084;52.482;9.108;2022-10-16T05:46:51;4.37;;;1.57;;
21843;SDS011;11084;52.482;9.108;2022-10-16T05:49:18;4.73;;;1.33;;
21843;SDS011;11084;52.482;9.108;2022-10-16T05:51:44;6.20;;;1.53;;
21843;SDS011;11084;52.482;9.108;2022-10-16T05:54:10;3.27;;;1.53;;
21843;SDS011;11084;52.482;9.108;2022-10-16T05:56:35;1.77;;;1.43;;
21843;SDS011;11084;52.482;9.108;2022-10-16T05:59:02;3.27;;;1.60;;
21843;SDS011;11084;52.482;9.108;2022-10-16T06:01:29;3.30;;;1.70;;
21843;SDS011;11084;52.482;9.108;2022-10-16T06:03:56;5.07;;;1.40;;
21843;SDS011;11084;52.482;9.108;2022-10-16T06:06:23;11.07;;;1.30;;
21843;SDS011;11084;52.482;9.108;2022-10-16T06:08:54;1.17;;;1.07;;
21843;SDS011;11084;52.482;9.108;2022-10-16T06:11:23;1.40;;;1.20;;
21843;SDS011;11084;52.482;9.108;2022-10-16T06:13:53;6.20;;;1.30;;
21843;SDS011;11084;52.482;9.108;2022-10-16T06:16:22;6.47;;;1.60;;
21843;SDS011;11084;52.482;9.108;2022-10-16T06:18:50;1.17;;;1.07;;
21843;SDS011;11084;52.482;9.108;2022-10-16T06:21:18;3.53;;;1.20;;
21843;SDS011;11084;52.482;9.108;2022-10-16T06:23:47;2.13;;;1.30;;
21843;SDS011;11084;52.482;9.108;2022-10-16T06:26:14;1.80;;;1.17;;
21843;SDS011;11084;52.482;9.108;2022-10-16T06:28:44;4.33;;;1.30;;
21843;SDS011;11084;52.482;9.108;2022-10-16T06:31:10;1.10;;;1.00;;
21843;SDS011;11084;52.482;9.108;2022-10-16T06:33:39;7.20;;;1.30;;
21843;SDS011;11084;52.482;9.108;2022-10-16T06:36:06;1.67;;;1.00;;
21843;SDS011;11084;52.482;9.108;2022-10-16T06:38:38;2.43;;;1.27;;
21843;SDS011;11084;52.482;9.108;2022-10-16T06:41:06;6.67;;;1.10;;
21843;SDS011;11084;52.482;9.108;2022-10-16T06:43:34;0.83;;;0.83;;
21843;SDS011;11084;52.482;9.108;2022-10-16T06:46:01;2.10;;;1.00;;
21843;SDS011;11084;52.482;9.108;2022-10-16T06:48:31;1.50;;;0.80;;
21843;SDS011;11084;52.482;9.108;2022-10-16T06:50:58;2.67;;;1.07;;
21843;SDS011;11084;52.482;9.108;2022-10-16T06:53:37;6.03;;;0.90;;
21843;SDS011;11084;52.482;9.108;2022-10-16T06:56:12;4.37;;;1.00;;
21843;SDS011;11084;52.482;9.108;2022-10-16T06:58:44;10.20;;;1.20;;
21843;SDS011;11084;52.482;9.108;2022-10-16T07:01:11;1.83;;;1.00;;
21843;SDS011;11084;52.482;9.108;2022-10-16T07:03:40;5.33;;;1.30;;
21843;SDS011;11084;52.482;9.108;2022-10-16T07:06:07;4.73;;;0.80;;
21843;SDS011;11084;52.482;9.108;2022-10-16T07:08:38;1.03;;;0.77;;
21843;SDS011;11084;52.482;9.108;2022-10-16T07:11:07;6.13;;;0.97;;
21843;SDS011;11084;52.482;9.108;2022-10-16T07:13:36;1.80;;;0.97;;
21843;SDS011;11084;52.482;9.108;2022-10-16T07:16:10;2.30;;;0.73;;
21843;SDS011;11084;52.482;9.108;2022-10-16T07:18:40;2.40;;;0.80;;
21843;SDS011;11084;52.482;9.108;2022-10-16T07:21:09;1.63;;;0.70;;
21843;SDS011;11084;52.482;9.108;2022-10-16T07:23:51;1.60;;;0.90;;
21843;SDS011;11084;52.482;9.108;2022-10-16T07:26:18;2.87;;;0.80;;
21843;SDS011;11084;52.482;9.108;2022-10-16T07:28:45;1.60;;;0.90;;
21843;SDS011;11084;52.482;9.108;2022-10-16T07:31:12;6.40;;;0.80;;
21843;SDS011;11084;52.482;9.108;2022-10-16T07:33:40;1.50;;;0.77;;
21843;SDS011;11084;52.482;9.108;2022-10-16T07:36:09;2.40;;;0.60;;
21843;SDS011;11084;52.482;9.108;2022-10-16T07:38:36;0.93;;;0.70;;
21843;SDS011;11084;52.482;9.108;2022-10-16T07:41:04;3.40;;;0.90;;
21843;SDS011;11084;52.482;9.108;2022-10-16T07:43:39;0.80;;;0.70;;
21843;SDS011;11084;52.482;9.108;2022-10-16T07:46:06;0.70;;;0.70;;
21843;SDS011;11084;52.482;9.108;2022-10-16T07:48:33;0.53;;;0.50;;
21843;SDS011;11084;52.482;9.108;2022-10-16T07:51:00;0.67;;;0.50;;
21843;SDS011;11084;52.482;9.108;2022-10-16T07:53:29;2.03;;;0.80;;
21843;SDS011;11084;52.482;9.108;2022-10-16T07:55:59;1.03;;;0.60;;
21843;SDS011;11084;52.482;9.108;2022-10-16T07:58:27;0.50;;;0.47;;
21843;SDS011;11084;52.482;9.108;2022-10-16T08:00:57;5.60;;;1.03;;
21843;SDS011;11084;52.482;9.108;2022-10-16T08:03:24;1.17;;;0.57;;
21843;SDS011;11084;52.482;9.108;2022-10-16T08:05:50;0.83;;;0.80;;
21843;SDS011;11084;52.482;9.108;2022-10-16T08:08:17;1.63;;;0.60;;
21843;SDS011;11084;52.482;9.108;2022-10-16T08:10:44;2.50;;;0.57;;
21843;SDS011;11084;52.482;9.108;2022-10-16T08:13:10;4.33;;;0.50;;
21843;SDS011;11084;52.482;9.108;2022-10-16T08:15:39;0.93;;;0.57;;
21843;SDS011;11084;52.482;9.108;2022-10-16T08:18:07;4.50;;;0.67;;
21843;SDS011;11084;52.482;9.108;2022-10-16T08:20:34;4.47;;;0.60;;
21843;SDS011;11084;52.482;9.108;2022-10-16T08:23:00;3.37;;;0.90;;
21843;SDS011;11084;52.482;9.108;2022-10-16T08:25:26;0.67;;;0.67;;
21843;SDS011;11084;52.482;9.108;2022-10-16T08:27:53;1.23;;;0.93;;
21843;SDS011;11084;52.482;9.108;2022-10-16T08:30:19;1.03;;;0.80;;
21843;SDS011;11084;52.482;9.108;2022-10-16T08:32:47;2.93;;;0.90;;
21843;SDS011;11084;52.482;9.108;2022-10-16T08:35:13;1.20;;;0.80;;
21843;SDS011;11084;52.482;9.108;2022-10-16T08:37:40;0.63;;;0.63;;
21843;SDS011;11084;52.482;9.108;2022-10-16T08:40:19;1.00;;;0.77;;
21843;SDS011;11084;52.482;9.108;2022-10-16T08:48:34;0.80;;;0.77;;
21843;SDS011;11084;52.482;9.108;2022-10-16T08:51:24;1.03;;;0.63;;
21843;SDS011;11084;52.482;9.108;2022-10-16T08:53:57;3.77;;;1.20;;
21843;SDS011;11084;52.482;9.108;2022-10-16T08:56:47;7.93;;;0.80;;
21843;SDS011;11084;52.482;9.108;2022-10-16T08:59:13;0.77;;;0.67;;
21843;SDS011;11084;52.482;9.108;2022-10-16T09:01:42;1.43;;;0.77;;
21843;SDS011;11084;52.482;9.108;2022-10-16T09:07:17;3.90;;;0.70;;
21843;SDS011;11084;52.482;9.108;2022-10-16T09:23:13;1.57;;;0.60;;
21843;SDS011;11084;52.482;9.108;2022-10-16T09:25:48;6.00;;;0.93;;
21843;SDS011;11084;52.482;9.108;2022-10-16T09:28:17;4.97;;;0.83;;
21843;SDS011;11084;52.482;9.108;2022-10-16T09:30:45;1.17;;;0.70;;
21843;SDS011;11084;52.482;9.108;2022-10-16T09:33:16;1.40;;;0.83;;
21843;SDS011;11084;52.482;9.108;2022-10-16T09:35:45;6.10;;;1.00;;
21843;SDS011;11084;52.482;9.108;2022-10-16T09:38:26;0.87;;;0.80;;
21843;SDS011;11084;52.482;9.108;2022-10-16T09:40:56;0.73;;;0.70;;
21843;SDS011;11084;52.482;9.108;2022-10-16T09:43:25;1.57;;;0.80;;
21843;SDS011;11084;52.482;9.108;2022-10-16T09:46:07;0.73;;;0.73;;
21843;SDS011;11084;52.482;9.108;2022-10-16T09:48:47;4.70;;;1.30;;
21843;SDS011;11084;52.482;9.108;2022-10-16T09:51:18;4.47;;;1.03;;
21843;SDS011;11084;52.482;9.108;2022-10-16T09:53:48;2.30;;;1.10;;
21843;SDS011;11084;52.482;9.108;2022-10-16T09:56:47;0.63;;;0.63;;
21843;SDS011;11084;52.482;9.108;2022-10-16T09:59:11;4.67;;;0.70;;
21843;SDS011;11084;52.482;9.108;2022-10-16T10:01:47;4.53;;;1.10;;
21843;SDS011;11084;52.482;9.108;2022-10-16T10:04:18;5.83;;;0.97;;
21843;SDS011;11084;52.482;9.108;2022-10-16T10:06:47;2.97;;;1.00;;
21843;SDS011;11084;52.482;9.108;2022-10-16T10:09:23;4.57;;;1.50;;
21843;SDS011;11084;52.482;9.108;2022-10-16T10:11:53;4.00;;;1.23;;
21843;SDS011;11084;52.482;9.108;2022-10-16T10:19:47;1.50;;;1.10;;
21843;SDS011;11084;52.482;9.108;2022-10-16T10:27:49;2.97;;;1.03;;
21843;SDS011;11084;52.482;9.108;2022-10-16T10:39:08;4.73;;;1.10;;
21843;SDS011;11084;52.482;9.108;2022-10-16T10:44:33;2.63;;;0.83;;
21843;SDS011;11084;52.482;9.108;2022-10-16T10:50:23;4.70;;;1.00;;
21843;SDS011;11084;52.482;9.108;2022-10-16T10:56:24;3.90;;;0.93;;
21843;SDS011;11084;52.482;9.108;2022-10-16T11:02:33;1.53;;;0.80;;
21843;SDS011;11084;52.482;9.108;2022-10-16T11:08:16;1.87;;;0.70;;
21843;SDS011;11084;52.482;9.108;2022-10-16T11:11:08;5.33;;;0.87;;
21843;SDS011;11084;52.482;9.108;2022-10-16T11:13:50;1.70;;;0.60;;
21843;SDS011;11084;52.482;9.108;2022-10-16T11:16:34;3.53;;;0.90;;
21843;SDS011;11084;52.482;9.108;2022-10-16T11:19:14;6.03;;;0.90;;
21843;SDS011;11084;52.482;9.108;2022-10-16T11:27:33;5.40;;;0.73;;
21843;SDS011;11084;52.482;9.108;2022-10-16T11:47:24;3.20;;;0.80;;
21843;SDS011;11084;52.482;9.108;2022-10-16T11:55:31;5.37;;;0.80;;
21843;SDS011;11084;52.482;9.108;2022-10-16T11:58:07;6.60;;;0.77;;
21843;SDS011;11084;52.482;9.108;2022-10-16T12:09:32;2.10;;;0.80;;
21843;SDS011;11084;52.482;9.108;2022-10-16T12:12:02;4.13;;;0.90;;
21843;SDS011;11084;52.482;9.108;2022-10-16T12:17:23;1.73;;;0.70;;
21843;SDS011;11084;52.482;9.108;2022-10-16T12:20:01;3.03;;;0.70;;
21843;SDS011;11084;52.482;9.108;2022-10-16T12:22:36;1.53;;;0.63;;
21843;SDS011;11084;52.482;9.108;2022-10-16T12:25:20;7.63;;;0.70;;
21843;SDS011;11084;52.482;9.108;2022-10-16T12:28:27;1.03;;;0.80;;
21843;SDS011;11084;52.482;9.108;2022-10-16T12:31:02;2.37;;;0.87;;
21843;SDS011;11084;52.482;9.108;2022-10-16T12:33:35;3.23;;;0.60;;
21843;SDS011;11084;52.482;9.108;2022-10-16T12:36:09;2.70;;;0.70;;
21843;SDS011;11084;52.482;9.108;2022-10-16T12:38:48;2.80;;;0.77;;
21843;SDS011;11084;52.482;9.108;2022-10-16T12:44:00;0.80;;;0.60;;
21843;SDS011;11084;52.482;9.108;2022-10-16T12:49:05;3.40;;;0.80;;
21843;SDS011;11084;52.482;9.108;2022-10-16T12:51:39;2.80;;;1.23;;
21843;SDS011;11084;52.482;9.108;2022-10-16T13:11:23;1.47;;;0.67;;
21843;SDS011;11084;52.482;9.108;2022-10-16T13:20:33;1.10;;;0.63;;
21843;SDS011;11084;52.482;9.108;2022-10-16T13:23:15;2.93;;;0.90;;
21843;SDS011;11084;52.482;9.108;2022-10-16T13:29:23;0.97;;;0.50;;
21843;SDS011;11084;52.482;9.108;2022-10-16T13:31:55;2.27;;;0.80;;
21843;SDS011;11084;52.482;9.108;2022-10-16T13:34:23;1.27;;;0.70;;
21843;SDS011;11084;52.482;9.108;2022-10-16T13:36:51;1.67;;;0.80;;
21843;SDS011;11084;52.482;9.108;2022-10-16T13:42:03;2.60;;;0.60;;
21843;SDS011;11084;52.482;9.108;2022-10-16T13:44:41;3.40;;;0.60;;
21843;SDS011;11084;52.482;9.108;2022-10-16T13:47:18;6.77;;;0.70;;
21843;SDS011;11084;52.482;9.108;2022-10-16T13:50:04;6.30;;;0.90;;
21843;SDS011;11084;52.482;9.108;2022-10-16T13:52:50;2.30;;;0.73;;
21843;SDS011;11084;52.482;9.108;2022-10-16T13:55:18;1.83;;;0.77;;
21843;SDS011;11084;52.482;9.108;2022-10-16T13:57:44;1.27;;;0.77;;
21843;SDS011;11084;52.482;9.108;2022-10-16T14:00:17;3.00;;;0.83;;
21843;SDS011;11084;52.482;9.108;2022-10-16T14:02:53;4.23;;;0.70;;
21843;SDS011;11084;52.482;9.108;2022-10-16T14:05:28;6.40;;;1.00;;
21843;SDS011;11084;52.482;9.108;2022-10-16T14:07:54;3.60;;;0.80;;
21843;SDS011;11084;52.482;9.108;2022-10-16T14:12:57;2.47;;;0.87;;
21843;SDS011;11084;52.482;9.108;2022-10-16T14:15:30;1.97;;;0.67;;
21843;SDS011;11084;52.482;9.108;2022-10-16T14:17:59;0.80;;;0.70;;
21843;SDS011;11084;52.482;9.108;2022-10-16T14:20:26;1.43;;;0.70;;
21843;SDS011;11084;52.482;9.108;2022-10-16T14:23:03;1.90;;;0.90;;
21843;SDS011;11084;52.482;9.108;2022-10-16T14:25:45;2.53;;;0.53;;
21843;SDS011;11084;52.482;9.108;2022-10-16T14:28:21;1.20;;;0.73;;
21843;SDS011;11084;52.482;9.108;2022-10-16T14:30:57;3.33;;;0.90;;
21843;SDS011;11084;52.482;9.108;2022-10-16T14:38:35;3.27;;;1.00;;
21843;SDS011;11084;52.482;9.108;2022-10-16T14:41:06;1.27;;;0.73;;
21843;SDS011;11084;52.482;9.108;2022-10-16T14:43:35;1.50;;;0.87;;
21843;SDS011;11084;52.482;9.108;2022-10-16T14:46:21;1.00;;;0.87;;
21843;SDS011;11084;52.482;9.108;2022-10-16T14:51:42;7.83;;;1.00;;
21843;SDS011;11084;52.482;9.108;2022-10-16T14:54:12;2.67;;;0.80;;
21843;SDS011;11084;52.482;9.108;2022-10-16T14:59:16;2.23;;;0.80;;
21843;SDS011;11084;52.482;9.108;2022-10-16T15:01:58;6.37;;;0.73;;
21843;SDS011;11084;52.482;9.108;2022-10-16T15:04:26;4.07;;;0.70;;
21843;SDS011;11084;52.482;9.108;2022-10-16T15:06:52;6.70;;;1.10;;
21843;SDS011;11084;52.482;9.108;2022-10-16T15:09:18;4.37;;;1.03;;
21843;SDS011;11084;52.482;9.108;2022-10-16T15:11:44;0.53;;;0.53;;
21843;SDS011;11084;52.482;9.108;2022-10-16T15:14:11;1.83;;;0.70;;
21843;SDS011;11084;52.482;9.108;2022-10-16T15:16:38;8.43;;;0.90;;
21843;SDS011;11084;52.482;9.108;2022-10-16T15:19:04;0.97;;;0.77;;
21843;SDS011;11084;52.482;9.108;2022-10-16T15:21:31;2.67;;;0.87;;
21843;SDS011;11084;52.482;9.108;2022-10-16T15:23:58;3.13;;;0.70;;
21843;SDS011;11084;52.482;9.108;2022-10-16T15:26:26;3.47;;;0.80;;
21843;SDS011;11084;52.482;9.108;2022-10-16T15:28:54;3.23;;;1.20;;
21843;SDS011;11084;52.482;9.108;2022-10-16T15:31:21;5.67;;;1.20;;
21843;SDS011;11084;52.482;9.108;2022-10-16T15:33:49;3.37;;;0.70;;
21843;SDS011;11084;52.482;9.108;2022-10-16T15:36:28;1.07;;;0.80;;
21843;SDS011;11084;52.482;9.108;2022-10-16T15:38:58;2.53;;;0.80;;
21843;SDS011;11084;52.482;9.108;2022-10-16T15:41:25;3.60;;;0.77;;
21843;SDS011;11084;52.482;9.108;2022-10-16T15:43:51;2.20;;;0.67;;
21843;SDS011;11084;52.482;9.108;2022-10-16T15:46:18;1.93;;;1.00;;
21843;SDS011;11084;52.482;9.108;2022-10-16T15:48:50;1.17;;;0.80;;
21843;SDS011;11084;52.482;9.108;2022-10-16T15:51:21;0.87;;;0.47;;
21843;SDS011;11084;52.482;9.108;2022-10-16T15:53:47;1.80;;;0.80;;
21843;SDS011;11084;52.482;9.108;2022-10-16T15:56:13;2.20;;;0.80;;
21843;SDS011;11084;52.482;9.108;2022-10-16T15:58:41;2.10;;;0.87;;
21843;SDS011;11084;52.482;9.108;2022-10-16T16:01:08;3.60;;;0.90;;
21843;SDS011;11084;52.482;9.108;2022-10-16T16:03:36;1.40;;;0.83;;
21843;SDS011;11084;52.482;9.108;2022-10-16T16:06:06;4.27;;;0.93;;
21843;SDS011;11084;52.482;9.108;2022-10-16T16:08:35;1.63;;;0.90;;
21843;SDS011;11084;52.482;9.108;2022-10-16T16:11:04;6.13;;;1.03;;
21843;SDS011;11084;52.482;9.108;2022-10-16T16:13:34;4.47;;;1.10;;
21843;SDS011;11084;52.482;9.108;2022-10-16T16:16:08;3.10;;;0.70;;
21843;SDS011;11084;52.482;9.108;2022-10-16T16:18:42;2.10;;;1.10;;
21843;SDS011;11084;52.482;9.108;2022-10-16T16:21:10;7.43;;;0.90;;
21843;SDS011;11084;52.482;9.108;2022-10-16T16:23:38;3.00;;;0.80;;
21843;SDS011;11084;52.482;9.108;2022-10-16T16:26:06;2.00;;;0.93;;
21843;SDS011;11084;52.482;9.108;2022-10-16T16:28:37;2.37;;;0.87;;
21843;SDS011;11084;52.482;9.108;2022-10-16T16:31:04;2.70;;;0.90;;
21843;SDS011;11084;52.482;9.108;2022-10-16T16:33:31;3.20;;;1.00;;
21843;SDS011;11084;52.482;9.108;2022-10-16T16:35:58;10.37;;;1.40;;
21843;SDS011;11084;52.482;9.108;2022-10-16T16:38:27;4.03;;;1.20;;
21843;SDS011;11084;52.482;9.108;2022-10-16T16:40:53;2.17;;;1.03;;
21843;SDS011;11084;52.482;9.108;2022-10-16T16:43:24;3.17;;;1.33;;
21843;SDS011;11084;52.482;9.108;2022-10-16T16:45:51;1.33;;;0.90;;
21843;SDS011;11084;52.482;9.108;2022-10-16T16:48:18;2.97;;;1.47;;
21843;SDS011;11084;52.482;9.108;2022-10-16T16:50:45;1.80;;;1.37;;
21843;SDS011;11084;52.482;9.108;2022-10-16T16:53:11;8.80;;;1.57;;
21843;SDS011;11084;52.482;9.108;2022-10-16T16:55:38;3.50;;;0.97;;
21843;SDS011;11084;52.482;9.108;2022-10-16T16:58:04;5.93;;;1.00;;
21843;SDS011;11084;52.482;9.108;2022-10-16T17:00:30;0.97;;;0.80;;
21843;SDS011;11084;52.482;9.108;2022-10-16T17:02:57;11.30;;;1.20;;
21843;SDS011;11084;52.482;9.108;2022-10-16T17:05:23;1.83;;;1.00;;
21843;SDS011;11084;52.482;9.108;2022-10-16T17:07:50;5.43;;;1.40;;
21843;SDS011;11084;52.482;9.108;2022-10-16T17:10:16;3.40;;;0.80;;
21843;SDS011;11084;52.482;9.108;2022-10-16T17:12:42;3.53;;;1.00;;
21843;SDS011;11084;52.482;9.108;2022-10-16T17:15:08;1.57;;;1.40;;
21843;SDS011;11084;52.482;9.108;2022-10-16T17:17:34;3.03;;;1.60;;
21843;SDS011;11084;52.482;9.108;2022-10-16T17:20:02;3.67;;;1.40;;
21843;SDS011;11084;52.482;9.108;2022-10-16T17:22:29;1.80;;;1.17;;
21843;SDS011;11084;52.482;9.108;2022-10-16T17:24:55;2.70;;;1.10;;
21843;SDS011;11084;52.482;9.108;2022-10-16T17:27:21;1.27;;;0.90;;
21843;SDS011;11084;52.482;9.108;2022-10-16T17:29:51;4.03;;;1.07;;
21843;SDS011;11084;52.482;9.108;2022-10-16T17:32:17;10.67;;;1.30;;
21843;SDS011;11084;52.482;9.108;2022-10-16T17:34:45;11.07;;;1.27;;
21843;SDS011;11084;52.482;9.108;2022-10-16T17:37:11;7.77;;;1.10;;
21843;SDS011;11084;52.482;9.108;2022-10-16T17:39:37;2.00;;;0.90;;
21843;SDS011;11084;52.482;9.108;2022-10-16T17:42:03;3.17;;;1.30;;
21843;SDS011;11084;52.482;9.108;2022-10-16T17:44:29;2.40;;;1.00;;
21843;SDS011;11084;52.482;9.108;2022-10-16T17:46:56;4.37;;;0.73;;
21843;SDS011;11084;52.482;9.108;2022-10-16T17:49:31;4.43;;;1.30;;
21843;SDS011;11084;52.482;9.108;2022-10-16T17:51:58;4.07;;;1.03;;
21843;SDS011;11084;52.482;9.108;2022-10-16T17:54:27;7.43;;;1.13;;